createdAt,value
2018-09-19T00:01:11.440Z,60.83
2018-09-19T00:03:40.749Z,60.28
2018-09-19T00:06:09.938Z,60.05
2018-09-19T00:08:38.437Z,59.29
2018-09-19T00:11:08.005Z,59.25
2018-09-19T00:13:36.487Z,59.17
2018-09-19T00:16:09.193Z,58.67
2018-09-19T00:18:38.027Z,59.37
2018-09-19T00:21:07.479Z,59.25
2018-09-19T00:23:37.213Z,60.47
2018-09-19T00:26:05.898Z,61.36
2018-09-19T00:28:35.238Z,61.25
2018-09-19T00:31:03.959Z,61.50
2018-09-19T00:33:32.676Z,60.65
2018-09-19T00:36:02.812Z,59.97
2018-09-19T00:38:31.342Z,60.00
2018-09-19T00:40:59.826Z,60.93
2018-09-19T00:43:29.223Z,61.03
2018-09-19T00:45:59.544Z,60.86
2018-09-19T00:48:29.862Z,61.17
2018-09-19T00:50:58.338Z,60.42
2018-09-19T00:53:26.774Z,60.59
2018-09-19T00:55:56.449Z,60.67
2018-09-19T00:58:25.559Z,60.62
2018-09-19T01:00:54.245Z,61.10
2018-09-19T01:03:24.326Z,61.59
2018-09-19T01:05:53.521Z,61.89
2018-09-19T01:08:21.985Z,61.35
2018-09-19T01:10:51.936Z,61.56
2018-09-19T01:13:20.420Z,62.16
2018-09-19T01:15:49.830Z,61.96
2018-09-19T01:18:19.159Z,62.55
2018-09-19T01:20:47.644Z,62.31
2018-09-19T01:23:16.413Z,62.32
2018-09-19T01:25:45.311Z,62.29
2018-09-19T01:28:14.026Z,62.06
2018-09-19T01:30:42.849Z,61.69
2018-09-19T01:33:12.380Z,61.98
2018-09-19T01:35:40.846Z,62.01
2018-09-19T01:38:09.586Z,62.46
2018-09-19T01:40:38.636Z,62.35
2018-09-19T01:43:07.108Z,62.72
2018-09-19T01:45:36.474Z,62.33
2018-09-19T01:48:06.097Z,62.51
2018-09-19T01:50:35.986Z,63.12
2018-09-19T01:53:06.168Z,63.00
2018-09-19T01:55:35.287Z,62.63
2018-09-19T01:58:04.683Z,62.45
2018-09-19T02:00:35.128Z,63.12
2018-09-19T02:03:03.590Z,63.12
2018-09-19T02:05:33.017Z,63.08
2018-09-19T02:08:02.168Z,63.34
2018-09-19T02:10:30.895Z,63.33
2018-09-19T02:12:59.649Z,63.29
2018-09-19T02:15:28.107Z,63.25
2018-09-19T02:17:57.938Z,64.30
2018-09-19T02:20:26.389Z,64.81
2018-09-19T02:22:55.250Z,64.93
2018-09-19T02:25:23.720Z,65.03
2018-09-19T02:27:54.329Z,65.03
2018-09-19T02:30:23.314Z,66.34
2018-09-19T02:32:52.312Z,65.89
2018-09-19T02:35:22.757Z,65.96
2018-09-19T02:37:52.186Z,66.02
2018-09-19T02:40:20.644Z,64.67
2018-09-19T02:42:49.125Z,64.98
2018-09-19T02:45:19.358Z,64.61
2018-09-19T02:47:47.808Z,64.67
2018-09-19T02:50:17.216Z,65.31
2018-09-19T02:52:50.067Z,64.70
2018-09-19T02:55:19.794Z,64.54
2018-09-19T02:57:48.276Z,64.17
2018-09-19T03:00:17.159Z,63.72
2018-09-19T03:02:46.713Z,63.58
2018-09-19T03:05:15.187Z,63.26
2018-09-19T03:07:46.302Z,64.14
2018-09-19T03:10:15.644Z,64.71
2018-09-19T03:12:44.939Z,65.25
2018-09-19T03:15:14.546Z,66.90
2018-09-19T03:17:44.411Z,67.08
2018-09-19T03:20:12.967Z,67.59
2018-09-19T03:22:41.751Z,67.73
2018-09-19T03:25:10.791Z,68.50
2018-09-19T03:27:40.920Z,68.30
2018-09-19T03:30:09.404Z,68.14
2018-09-19T03:32:38.125Z,67.72
2018-09-19T03:35:09.749Z,67.81
2018-09-19T03:37:39.655Z,66.75
2018-09-19T03:40:08.771Z,66.68
2018-09-19T03:42:37.972Z,66.66
2018-09-19T03:45:06.528Z,66.97
2018-09-19T03:47:35.001Z,67.37
2018-09-19T03:50:03.946Z,67.84
2018-09-19T03:52:33.627Z,68.47
2018-09-19T03:55:02.181Z,69.25
2018-09-19T03:57:30.903Z,68.35
2018-09-19T04:00:00.316Z,67.60
2018-09-19T04:02:30.197Z,67.73
2018-09-19T04:04:58.869Z,67.98
2018-09-19T04:07:30.050Z,68.51
2018-09-19T04:10:00.420Z,68.55
2018-09-19T04:12:28.953Z,67.91
2018-09-19T04:14:57.933Z,68.99
2018-09-19T04:17:26.464Z,68.93
2018-09-19T04:19:55.269Z,68.42
2018-09-19T04:22:27.683Z,69.64
2018-09-19T04:24:56.141Z,69.58
2018-09-19T04:27:24.935Z,68.84
2018-09-19T04:29:53.907Z,68.97
2018-09-19T04:32:24.252Z,68.85
2018-09-19T04:34:54.208Z,68.15
2018-09-19T04:37:22.698Z,68.22
2018-09-19T04:39:51.899Z,68.82
2018-09-19T04:42:20.735Z,68.70
2018-09-19T04:44:50.331Z,68.89
2018-09-19T04:47:19.607Z,68.77
2018-09-19T04:49:48.723Z,68.63
2018-09-19T04:52:17.217Z,69.03
2018-09-19T04:54:46.168Z,72.10
2018-09-19T04:57:14.627Z,72.67
2018-09-19T04:59:44.333Z,71.71
2018-09-19T05:02:13.262Z,72.10
2018-09-19T05:04:42.641Z,71.69
2018-09-19T05:07:11.376Z,71.76
2018-09-19T05:09:41.125Z,71.35
2018-09-19T05:12:09.571Z,71.63
2018-09-19T05:14:38.452Z,72.04
2018-09-19T05:17:08.236Z,72.72
2018-09-19T05:19:38.035Z,72.21
2018-09-19T05:22:08.049Z,72.21
2018-09-19T05:24:38.792Z,72.78
2018-09-19T05:27:07.649Z,73.45
2018-09-19T05:29:36.992Z,72.44
2018-09-19T05:32:06.154Z,72.36
2018-09-19T05:34:34.659Z,71.83
2018-09-19T05:37:03.586Z,70.42
2018-09-19T05:39:32.098Z,69.97
2018-09-19T05:42:01.331Z,69.80
2018-09-19T05:44:30.032Z,69.38
2018-09-19T05:46:58.498Z,69.35
2018-09-19T05:49:27.395Z,69.64
2018-09-19T05:51:55.820Z,69.35
2018-09-19T05:54:24.396Z,68.81
2018-09-19T05:56:52.792Z,68.98
2018-09-19T05:59:21.335Z,69.46
2018-09-19T06:01:55.427Z,69.65
2018-09-19T06:04:24.219Z,69.80
2018-09-19T06:06:53.077Z,69.71
2018-09-19T06:09:23.035Z,70.26
2018-09-19T06:11:52.165Z,69.81
2018-09-19T06:14:20.935Z,69.38
2018-09-19T06:16:49.603Z,69.00
2018-09-19T06:19:18.781Z,69.01
2018-09-19T06:21:49.402Z,69.05
2018-09-19T06:24:17.842Z,69.27
2018-09-19T06:26:46.458Z,69.99
2018-09-19T06:29:15.401Z,70.09
2018-09-19T06:31:44.733Z,70.91
2018-09-19T06:34:13.936Z,72.10
2018-09-19T06:36:43.290Z,70.67
2018-09-19T06:39:12.540Z,71.70
2018-09-19T06:41:42.468Z,71.49
2018-09-19T06:44:11.298Z,71.12
2018-09-19T06:46:40.689Z,70.74
2018-09-19T06:49:09.622Z,69.98
2018-09-19T06:51:39.430Z,69.28
2018-09-19T06:54:08.798Z,69.36
2018-09-19T06:56:37.704Z,69.91
2018-09-19T06:59:06.497Z,70.30
2018-09-19T07:01:35.360Z,70.11
2018-09-19T07:04:05.003Z,69.64
2018-09-19T07:06:33.452Z,69.08
2018-09-19T07:09:02.202Z,68.95
2018-09-19T07:11:32.313Z,69.34
2018-09-19T07:14:05.652Z,69.03
2018-09-19T07:16:35.133Z,69.04
2018-09-19T07:19:04.360Z,68.58
2018-09-19T07:21:33.501Z,68.83
2018-09-19T07:24:02.206Z,69.30
2018-09-19T07:26:31.652Z,69.04
2018-09-19T07:29:00.744Z,69.07
2018-09-19T07:31:29.253Z,69.32
2018-09-19T07:33:58.049Z,68.90
2018-09-19T07:36:26.787Z,69.14
2018-09-19T07:38:56.226Z,69.07
2018-09-19T07:41:24.940Z,68.02
2018-09-19T07:43:53.750Z,67.93
2018-09-19T07:46:22.735Z,67.17
2018-09-19T07:48:53.693Z,67.02
2018-09-19T07:51:22.167Z,67.86
2018-09-19T07:53:50.977Z,68.61
2018-09-19T07:56:19.481Z,68.65
2018-09-19T07:58:48.271Z,69.09
2018-09-19T08:01:18.368Z,68.31
2018-09-19T08:03:47.134Z,66.57
2018-09-19T08:06:15.736Z,66.04
2018-09-19T08:08:44.722Z,65.18
2018-09-19T08:11:13.269Z,63.48
2018-09-19T08:13:45.522Z,63.52
2018-09-19T08:16:14.352Z,63.81
2018-09-19T08:18:42.885Z,63.13
2018-09-19T08:21:11.427Z,62.92
2018-09-19T08:23:39.864Z,62.72
2018-09-19T08:26:08.322Z,62.74
2018-09-19T08:28:37.155Z,62.67
2018-09-19T08:31:10.045Z,62.30
2018-09-19T08:33:38.755Z,60.95
2018-09-19T08:36:07.287Z,60.51
2018-09-19T08:38:36.292Z,59.91
2018-09-19T08:41:05.193Z,59.81
2018-09-19T08:43:33.898Z,59.00
2018-09-19T08:46:02.623Z,59.48
2018-09-19T08:48:32.037Z,58.00
2018-09-19T08:51:00.730Z,56.97
2018-09-19T08:53:29.505Z,56.25
2018-09-19T08:55:58.044Z,55.48
2018-09-19T08:58:28.058Z,55.44
2018-09-19T09:00:57.919Z,55.73
2018-09-19T09:03:28.809Z,54.96
2018-09-19T09:05:57.937Z,54.85
2018-09-19T09:08:26.664Z,54.51
2018-09-19T09:10:55.240Z,53.64
2018-09-19T09:13:24.329Z,54.35
2018-09-19T09:15:54.206Z,52.71
2018-09-19T09:18:25.845Z,53.11
2018-09-19T09:20:54.510Z,52.01
2018-09-19T09:23:24.229Z,52.15
2018-09-19T09:25:54.042Z,51.77
2018-09-19T09:28:23.255Z,50.45
2018-09-19T09:30:51.940Z,50.30
2018-09-19T09:33:27.479Z,50.85
2018-09-19T09:35:58.998Z,50.51
2018-09-19T09:38:28.986Z,50.45
2018-09-19T09:41:01.368Z,50.17
2018-09-19T09:43:30.791Z,51.28
2018-09-19T09:46:01.056Z,51.63
2018-09-19T09:48:30.158Z,51.47
2018-09-19T09:51:00.366Z,51.03
2018-09-19T09:53:28.893Z,50.40
2018-09-19T09:55:58.080Z,49.74
2018-09-19T09:58:26.951Z,48.92
2018-09-19T10:00:55.462Z,48.26
2018-09-19T10:03:24.847Z,48.37
2018-09-19T10:05:53.321Z,47.61
2018-09-19T10:08:22.479Z,48.04
2018-09-19T10:10:51.352Z,47.19
2018-09-19T10:13:20.044Z,46.24
2018-09-19T10:15:49.069Z,47.07
2018-09-19T10:18:17.686Z,46.93
2018-09-19T10:20:46.492Z,46.16
2018-09-19T10:23:15.288Z,45.25
2018-09-19T10:25:43.816Z,45.53
2018-09-19T10:28:12.249Z,44.72
2018-09-19T10:30:42.454Z,44.56
2018-09-19T10:33:11.052Z,44.05
2018-09-19T10:35:39.591Z,44.21
2018-09-19T10:38:09.041Z,43.07
2018-09-19T10:40:37.869Z,42.60
2018-09-19T10:43:06.712Z,42.37
2018-09-19T10:45:35.200Z,43.34
2018-09-19T10:48:03.700Z,43.28
2018-09-19T10:50:32.182Z,43.35
2018-09-19T10:53:00.990Z,43.16
2018-09-19T10:55:29.479Z,43.99
2018-09-19T10:57:58.787Z,43.77
2018-09-19T11:00:32.225Z,43.90
2018-09-19T11:03:01.244Z,42.74
2018-09-19T11:05:30.515Z,41.86
2018-09-19T11:07:58.969Z,41.47
2018-09-19T11:10:28.182Z,40.80
2018-09-19T11:12:58.519Z,40.97
2018-09-19T11:15:27.504Z,42.17
2018-09-19T11:17:55.980Z,40.63
2018-09-19T11:20:24.787Z,39.85
2018-09-19T11:22:53.253Z,39.13
2018-09-19T11:25:22.230Z,39.30
2018-09-19T11:27:50.937Z,38.95
2018-09-19T11:30:20.129Z,40.20
2018-09-19T11:32:48.951Z,39.27
2018-09-19T11:35:18.227Z,39.67
2018-09-19T11:37:47.728Z,39.12
2018-09-19T11:40:17.850Z,39.17
2018-09-19T11:42:47.710Z,38.15
2018-09-19T11:45:16.480Z,36.43
2018-09-19T11:47:44.970Z,36.45
2018-09-19T11:50:14.084Z,37.58
2018-09-19T11:52:44.956Z,37.53
2018-09-19T11:55:16.593Z,35.57
2018-09-19T11:57:45.461Z,36.13
2018-09-19T12:00:14.144Z,37.11
2018-09-19T12:02:42.614Z,37.96
2018-09-19T12:05:11.553Z,36.34
2018-09-19T12:07:40.100Z,36.47
2018-09-19T12:10:08.844Z,36.79
2018-09-19T12:12:38.311Z,37.49
2018-09-19T12:15:07.817Z,37.03
2018-09-19T12:17:36.538Z,36.51
2018-09-19T12:20:05.448Z,36.76
2018-09-19T12:22:34.376Z,35.17
2018-09-19T12:25:02.871Z,35.84
2018-09-19T12:27:33.179Z,34.77
2018-09-19T12:30:01.708Z,34.44
2018-09-19T12:32:30.528Z,33.41
2018-09-19T12:34:59.028Z,34.61
2018-09-19T12:37:27.787Z,35.25
2018-09-19T12:39:58.488Z,34.51
2018-09-19T12:42:27.354Z,35.13
2018-09-19T12:44:57.596Z,34.95
2018-09-19T12:47:26.040Z,36.14
2018-09-19T12:49:54.745Z,35.53
2018-09-19T12:52:23.681Z,35.55
2018-09-19T12:54:53.794Z,34.88
2018-09-19T12:57:22.232Z,35.23
2018-09-19T12:59:52.972Z,36.00
2018-09-19T13:02:21.509Z,34.75
2018-09-19T13:04:50.196Z,35.41
2018-09-19T13:07:19.020Z,35.04
2018-09-19T13:09:47.972Z,35.25
2018-09-19T13:12:16.676Z,34.79
2018-09-19T13:14:45.567Z,34.85
2018-09-19T13:17:14.023Z,35.41
2018-09-19T13:19:46.197Z,35.75
2018-09-19T13:22:14.680Z,35.37
2018-09-19T13:24:43.389Z,34.86
2018-09-19T13:27:11.870Z,35.58
2018-09-19T13:29:40.711Z,35.92
2018-09-19T13:32:09.190Z,36.81
2018-09-19T13:34:38.089Z,36.20
2018-09-19T13:37:07.481Z,34.41
2018-09-19T13:39:36.187Z,35.21
2018-09-19T13:42:04.915Z,35.56
2018-09-19T13:44:33.464Z,36.20
2018-09-19T13:47:03.088Z,35.92
2018-09-19T13:49:38.944Z,37.58
2018-09-19T13:52:07.834Z,37.21
2018-09-19T13:54:36.676Z,35.04
2018-09-19T13:57:05.499Z,35.44
2018-09-19T13:59:33.980Z,34.77
2018-09-19T14:02:02.456Z,35.39
2018-09-19T14:04:30.914Z,35.59
2018-09-19T14:07:00.496Z,36.13
2018-09-19T14:09:29.537Z,37.16
2018-09-19T14:11:59.055Z,36.22
2018-09-19T14:14:27.632Z,35.54
2018-09-19T14:16:57.569Z,36.20
2018-09-19T14:19:26.120Z,37.30
2018-09-19T14:21:55.542Z,36.85
2018-09-19T14:24:23.961Z,37.60
2018-09-19T14:26:52.864Z,37.49
2018-09-19T14:29:21.430Z,37.17
2018-09-19T14:31:50.757Z,36.79
2018-09-19T14:34:19.242Z,36.02
2018-09-19T14:36:47.730Z,35.84
2018-09-19T14:39:16.594Z,35.47
2018-09-19T14:41:45.620Z,36.29
2018-09-19T14:44:15.538Z,35.50
2018-09-19T14:46:44.030Z,36.19
2018-09-19T14:49:12.762Z,36.26
2018-09-19T14:51:41.756Z,36.57
2018-09-19T14:54:11.469Z,36.37
2018-09-19T14:56:41.119Z,35.29
2018-09-19T14:59:09.581Z,37.08
2018-09-19T15:01:38.068Z,36.39
2018-09-19T15:04:06.899Z,36.07
2018-09-19T15:06:35.357Z,35.88
2018-09-19T15:09:07.135Z,36.36
2018-09-19T15:11:37.478Z,36.22
2018-09-19T15:14:06.591Z,35.67
2018-09-19T15:16:35.390Z,35.62
2018-09-19T15:19:03.925Z,34.29
2018-09-19T15:21:37.017Z,34.01
2018-09-19T15:24:09.647Z,32.97
2018-09-19T15:26:39.089Z,33.35
2018-09-19T15:29:07.913Z,33.60
2018-09-19T15:31:39.416Z,33.67
2018-09-19T15:34:09.747Z,33.77
2018-09-19T15:36:38.196Z,34.14
2018-09-19T15:39:09.132Z,32.71
2018-09-19T15:41:40.726Z,32.77
2018-09-19T15:44:09.280Z,33.26
2018-09-19T15:46:37.857Z,32.69
2018-09-19T15:49:06.327Z,33.48
2018-09-19T15:51:35.813Z,33.04
2018-09-19T15:54:05.213Z,33.29
2018-09-19T15:56:33.765Z,34.08
2018-09-19T15:59:02.324Z,34.50
2018-09-19T16:01:31.897Z,33.67
2018-09-19T16:04:00.529Z,33.44
2018-09-19T16:06:30.200Z,33.24
2018-09-19T16:08:59.356Z,33.68
2018-09-19T16:11:27.824Z,33.38
2018-09-19T16:13:56.313Z,33.12
2018-09-19T16:16:25.484Z,33.83
2018-09-19T16:18:55.201Z,34.58
2018-09-19T16:21:25.035Z,34.56
2018-09-19T16:23:53.786Z,34.37
2018-09-19T16:26:23.209Z,34.10
2018-09-19T16:28:52.567Z,33.96
2018-09-19T16:31:21.392Z,34.04
2018-09-19T16:33:50.165Z,34.56
2018-09-19T16:36:19.616Z,34.90
2018-09-19T16:38:48.124Z,35.33
2018-09-19T16:41:17.292Z,36.13
2018-09-19T16:43:45.769Z,36.03
2018-09-19T16:46:14.987Z,36.21
2018-09-19T16:48:43.450Z,36.28
2018-09-19T16:51:12.679Z,35.98
2018-09-19T16:53:42.444Z,36.34
2018-09-19T16:56:11.684Z,36.72
2018-09-19T16:58:40.572Z,36.96
2018-09-19T17:01:09.044Z,36.84
2018-09-19T17:03:38.381Z,37.00
2018-09-19T17:06:07.576Z,37.12
2018-09-19T17:08:36.045Z,37.44
2018-09-19T17:11:04.868Z,37.47
2018-09-19T17:13:33.691Z,37.83
2018-09-19T17:16:02.376Z,38.14
2018-09-19T17:18:31.232Z,38.48
2018-09-19T17:21:00.123Z,38.63
2018-09-19T17:23:28.593Z,39.05
2018-09-19T17:25:57.094Z,39.44
2018-09-19T17:28:26.022Z,39.58
2018-09-19T17:30:54.809Z,40.01
2018-09-19T17:33:23.564Z,40.55
2018-09-19T17:35:52.912Z,40.41
2018-09-19T17:38:21.629Z,40.25
2018-09-19T17:40:51.001Z,40.05
2018-09-19T17:43:19.553Z,40.49
2018-09-19T17:45:49.576Z,40.58
2018-09-19T17:48:18.054Z,40.90
2018-09-19T17:50:46.568Z,41.23
2018-09-19T17:53:16.581Z,41.28
2018-09-19T17:55:45.088Z,41.23
2018-09-19T17:58:14.131Z,40.79
2018-09-19T18:00:42.745Z,40.46
2018-09-19T18:03:11.482Z,40.96
2018-09-19T18:05:41.313Z,40.89
2018-09-19T18:08:11.095Z,41.00
2018-09-19T18:10:40.525Z,41.69
2018-09-19T18:13:08.984Z,41.72
2018-09-19T18:15:37.906Z,41.90
2018-09-19T18:18:08.439Z,41.83
2018-09-19T18:20:38.831Z,42.12
2018-09-19T18:23:07.629Z,42.07
2018-09-19T18:25:36.724Z,42.43
2018-09-19T18:28:05.604Z,42.68
2018-09-19T18:30:34.689Z,42.58
2018-09-19T18:33:03.648Z,42.68
2018-09-19T18:35:32.093Z,42.63
2018-09-19T18:38:01.103Z,42.92
2018-09-19T18:40:30.395Z,42.95
2018-09-19T18:42:59.175Z,42.73
2018-09-19T18:45:28.065Z,43.43
2018-09-19T18:47:57.474Z,43.62
2018-09-19T18:50:25.976Z,44.31
2018-09-19T18:52:55.072Z,44.75
2018-09-19T18:55:23.950Z,44.86
2018-09-19T18:57:53.656Z,45.06
2018-09-19T19:00:23.122Z,44.99
2018-09-19T19:02:51.778Z,45.27
2018-09-19T19:05:20.880Z,45.95
2018-09-19T19:07:49.676Z,46.01
2018-09-19T19:10:19.103Z,46.16
2018-09-19T19:12:47.814Z,46.19
2018-09-19T19:15:16.534Z,46.61
2018-09-19T19:17:48.571Z,46.91
2018-09-19T19:20:17.016Z,47.11
2018-09-19T19:22:45.801Z,46.71
2018-09-19T19:25:14.673Z,46.24
2018-09-19T19:27:43.316Z,46.51
2018-09-19T19:30:12.148Z,46.17
2018-09-19T19:32:40.833Z,46.56
2018-09-19T19:35:10.340Z,47.03
2018-09-19T19:37:38.961Z,47.57
2018-09-19T19:40:08.110Z,47.13
2018-09-19T19:42:36.915Z,47.55
2018-09-19T19:45:07.306Z,47.92
2018-09-19T19:47:36.318Z,48.35
2018-09-19T19:50:05.248Z,48.47
2018-09-19T19:52:34.521Z,48.40
2018-09-19T19:55:02.993Z,49.16
2018-09-19T19:57:32.046Z,49.37
2018-09-19T20:00:00.493Z,49.24
2018-09-19T20:02:29.235Z,49.93
2018-09-19T20:04:58.638Z,50.09
2018-09-19T20:07:27.409Z,49.82
2018-09-19T20:09:55.870Z,50.39
2018-09-19T20:12:24.489Z,50.36
2018-09-19T20:14:52.925Z,50.11
2018-09-19T20:17:22.132Z,50.89
2018-09-19T20:19:57.145Z,51.03
2018-09-19T20:22:25.701Z,50.76
2018-09-19T20:24:54.529Z,50.83
2018-09-19T20:27:23.450Z,50.52
2018-09-19T20:29:53.643Z,50.83
2018-09-19T20:32:22.210Z,50.68
2018-09-19T20:34:51.451Z,51.63
2018-09-19T20:37:20.678Z,51.51
2018-09-19T20:39:49.162Z,52.41
2018-09-19T20:42:18.105Z,52.40
2018-09-19T20:44:47.016Z,51.93
2018-09-19T20:47:16.387Z,52.06
2018-09-19T20:49:46.927Z,52.66
2018-09-19T20:52:15.720Z,52.65
2018-09-19T20:54:44.457Z,52.30
2018-09-19T20:57:13.829Z,51.83
2018-09-19T20:59:47.764Z,51.42
2018-09-19T21:02:16.477Z,51.59
2018-09-19T21:04:45.512Z,51.24
2018-09-19T21:07:14.228Z,52.42
2018-09-19T21:09:43.098Z,52.18
2018-09-19T21:12:13.742Z,52.19
2018-09-19T21:14:43.089Z,51.76
2018-09-19T21:17:11.574Z,52.16
2018-09-19T21:19:41.434Z,52.55
2018-09-19T21:22:10.893Z,53.39
2018-09-19T21:24:41.605Z,53.49
2018-09-19T21:27:11.149Z,53.64
2018-09-19T21:29:39.664Z,54.55
2018-09-19T21:32:08.168Z,54.45
2018-09-19T21:34:37.069Z,53.77
2018-09-19T21:37:05.765Z,53.71
2018-09-19T21:39:34.675Z,53.51
2018-09-19T21:42:06.810Z,52.58
2018-09-19T21:44:35.528Z,52.58
2018-09-19T21:47:04.300Z,53.17
2018-09-19T21:49:33.249Z,53.35
2018-09-19T21:52:02.194Z,54.14
2018-09-19T21:54:30.906Z,54.24
2018-09-19T21:57:00.674Z,54.42
2018-09-19T21:59:29.385Z,54.92
2018-09-19T22:01:59.307Z,54.81
2018-09-19T22:04:27.997Z,55.34
2018-09-19T22:06:56.452Z,55.28
2018-09-19T22:09:24.942Z,55.30
2018-09-19T22:11:54.340Z,55.98
2018-09-19T22:14:23.097Z,55.85
2018-09-19T22:16:51.549Z,55.90
2018-09-19T22:19:20.933Z,56.03
2018-09-19T22:21:49.393Z,56.83
2018-09-19T22:24:19.081Z,56.00
2018-09-19T22:26:47.524Z,56.53
2018-09-19T22:29:15.997Z,55.94
2018-09-19T22:31:44.668Z,56.68
2018-09-19T22:34:14.982Z,55.84
2018-09-19T22:36:43.815Z,55.58
2018-09-19T22:39:13.120Z,55.83
2018-09-19T22:41:42.613Z,56.49
2018-09-19T22:44:11.793Z,56.36
2018-09-19T22:46:40.938Z,57.21
2018-09-19T22:49:10.958Z,57.91
2018-09-19T22:51:39.632Z,58.33
2018-09-19T22:54:08.584Z,57.84
2018-09-19T22:56:37.510Z,58.60
2018-09-19T22:59:06.912Z,59.41
2018-09-19T23:01:35.899Z,59.48
2018-09-19T23:04:05.185Z,59.80
2018-09-19T23:06:34.106Z,59.59
2018-09-19T23:09:03.028Z,59.91
2018-09-19T23:11:32.924Z,59.81
2018-09-19T23:14:01.612Z,60.06
2018-09-19T23:16:31.163Z,60.34
2018-09-19T23:19:00.370Z,59.97
2018-09-19T23:21:29.081Z,60.29
2018-09-19T23:23:58.548Z,59.79
2018-09-19T23:26:28.410Z,60.54
2018-09-19T23:28:57.097Z,60.78
2018-09-19T23:31:25.873Z,60.42
2018-09-19T23:33:54.332Z,60.59
2018-09-19T23:36:23.041Z,60.90
2018-09-19T23:38:52.488Z,61.25
2018-09-19T23:41:20.988Z,61.07
2018-09-19T23:43:49.586Z,61.40
2018-09-19T23:46:18.298Z,61.18
2018-09-19T23:48:48.125Z,61.03
2018-09-19T23:51:16.924Z,61.21
2018-09-19T23:53:46.086Z,61.35
2018-09-19T23:56:15.976Z,61.64
2018-09-19T23:58:45.639Z,61.29
